Time;durP1;ratioP1;P1;durP2;ratioP2;P2;SDS_P1;SDS_P2;PMS_P1;PMS_P2;Temp;Humidity;BMP_temperature;BMP_pressure;BME280_temperature;BME280_humidity;BME280_pressure;Samples;Min_cycle;Max_cycle;Signal;HPM_P1;HPM_P2
2023/05/16 00:00:34;;;;;;;12.73;10.37;;;;;;;;;;4962896;28;20482;-95
2023/05/16 00:03:01;;;;;;;14.20;11.43;;;;;;;;;;4962595;28;21670;-95
2023/05/16 00:05:27;;;;;;;11.90;9.57;;;;;;;;;;4965961;28;20501;-94
2023/05/16 00:07:53;;;;;;;13.03;10.17;;;;;;;;;;4972140;28;20437;-95
2023/05/16 00:10:19;;;;;;;11.07;9.97;;;;;;;;;;4965580;28;20460;-94
2023/05/16 00:12:50;;;;;;;13.77;10.53;;;;;;;;;;4965500;28;20441;-95
2023/05/16 00:15:19;;;;;;;15.03;11.27;;;;;;;;;;4965052;28;20509;-95
2023/05/16 00:17:45;;;;;;;15.90;12.90;;;;;;;;;;4973987;28;20493;-94
2023/05/16 00:20:12;;;;;;;16.17;12.00;;;;;;;;;;4979761;28;20420;-96
2023/05/16 00:22:38;;;;;;;17.17;13.70;;;;;;;;;;4964943;28;20422;-96
2023/05/16 00:25:05;;;;;;;20.07;14.80;;;;;;;;;;4963234;28;20540;-94
2023/05/16 00:27:33;;;;;;;19.00;14.43;;;;;;;;;;4975937;28;20439;-96
2023/05/16 00:29:59;;;;;;;17.53;14.50;;;;;;;;;;4978364;28;20426;-95
2023/05/16 00:32:25;;;;;;;20.70;14.17;;;;;;;;;;4975714;28;20430;-95
2023/05/16 00:34:51;;;;;;;19.57;14.27;;;;;;;;;;4960041;28;20474;-95
2023/05/16 00:37:17;;;;;;;18.47;14.77;;;;;;;;;;4954061;29;20454;-95
2023/05/16 00:39:43;;;;;;;21.27;15.17;;;;;;;;;;4960172;28;20411;-94
2023/05/16 00:42:09;;;;;;;20.27;17.00;;;;;;;;;;4964116;28;20471;-95
2023/05/16 00:44:35;;;;;;;18.03;14.10;;;;;;;;;;4958047;28;20434;-94
2023/05/16 00:47:02;;;;;;;18.80;14.30;;;;;;;;;;4960644;28;20451;-94
2023/05/16 00:49:28;;;;;;;19.77;14.50;;;;;;;;;;4975792;28;20486;-94
2023/05/16 00:51:54;;;;;;;19.70;15.50;;;;;;;;;;4962822;28;20466;-94
2023/05/16 00:54:21;;;;;;;22.60;14.53;;;;;;;;;;4943846;29;20415;-94
2023/05/16 00:56:47;;;;;;;19.87;16.00;;;;;;;;;;4960382;28;20542;-94
2023/05/16 00:59:14;;;;;;;20.43;14.30;;;;;;;;;;4977825;28;20466;-94
2023/05/16 01:01:40;;;;;;;25.97;16.70;;;;;;;;;;4970781;28;20540;-94
2023/05/16 01:04:06;;;;;;;22.17;16.00;;;;;;;;;;4963013;28;20430;-94
2023/05/16 01:06:33;;;;;;;22.60;16.23;;;;;;;;;;4965767;28;20430;-94
2023/05/16 01:08:59;;;;;;;20.80;15.83;;;;;;;;;;4965705;28;20442;-94
2023/05/16 01:11:26;;;;;;;21.30;15.97;;;;;;;;;;4976621;28;20517;-94
2023/05/16 01:14:22;;;;;;;25.73;17.30;;;;;;;;;;4979206;28;20438;-94
2023/05/16 01:16:51;;;;;;;24.97;17.47;;;;;;;;;;4946969;28;20447;-94
2023/05/16 01:19:27;;;;;;;24.57;17.50;;;;;;;;;;4978094;28;20791;-95
2023/05/16 01:22:06;;;;;;;22.63;17.93;;;;;;;;;;4980090;28;20500;-94
2023/05/16 01:24:43;;;;;;;27.67;18.57;;;;;;;;;;4970381;28;20470;-94
2023/05/16 01:27:09;;;;;;;27.37;18.57;;;;;;;;;;4997193;28;20556;-94
2023/05/16 01:29:35;;;;;;;25.90;18.67;;;;;;;;;;4973335;28;20512;-94
2023/05/16 01:32:01;;;;;;;23.93;19.73;;;;;;;;;;4966652;28;20426;-95
2023/05/16 01:34:27;;;;;;;26.33;19.57;;;;;;;;;;4974242;28;20485;-94
2023/05/16 01:37:14;;;;;;;25.67;19.37;;;;;;;;;;4965701;28;20426;-94
2023/05/16 01:39:40;;;;;;;25.70;19.40;;;;;;;;;;4989317;28;20430;-94
2023/05/16 01:42:11;;;;;;;28.73;21.23;;;;;;;;;;4982270;28;20501;-94
2023/05/16 01:44:44;;;;;;;30.27;23.37;;;;;;;;;;4970544;28;20441;-94
2023/05/16 01:47:13;;;;;;;31.03;22.20;;;;;;;;;;4980486;28;20480;-94
2023/05/16 01:49:58;;;;;;;28.43;21.00;;;;;;;;;;4961601;28;20438;-95
2023/05/16 01:52:27;;;;;;;29.40;21.50;;;;;;;;;;4965194;28;20438;-94
2023/05/16 01:54:53;;;;;;;30.60;21.53;;;;;;;;;;4960273;28;20473;-93
2023/05/16 01:57:20;;;;;;;39.17;20.23;;;;;;;;;;4955422;28;20450;-93
2023/05/16 01:59:45;;;;;;;30.70;21.03;;;;;;;;;;4951490;28;21062;-93
2023/05/16 02:02:11;;;;;;;39.57;24.30;;;;;;;;;;4947671;28;20576;-94
2023/05/16 02:04:37;;;;;;;36.33;24.83;;;;;;;;;;4961553;28;20403;-94
2023/05/16 02:07:04;;;;;;;31.80;21.87;;;;;;;;;;4955875;28;20414;-95
2023/05/16 02:09:30;;;;;;;32.67;22.17;;;;;;;;;;4959662;28;20468;-94
2023/05/16 02:11:56;;;;;;;27.93;21.53;;;;;;;;;;4962997;28;20441;-94
2023/05/16 02:14:22;;;;;;;33.10;22.27;;;;;;;;;;4958188;28;20453;-94
2023/05/16 02:16:48;;;;;;;36.63;23.87;;;;;;;;;;4963073;28;20438;-96
2023/05/16 02:19:14;;;;;;;35.60;25.10;;;;;;;;;;4959849;28;20456;-95
2023/05/16 02:21:40;;;;;;;35.77;23.47;;;;;;;;;;4978184;28;20476;-94
2023/05/16 02:24:06;;;;;;;40.00;25.03;;;;;;;;;;4959721;28;20468;-95
2023/05/16 02:26:32;;;;;;;40.53;23.60;;;;;;;;;;4963280;28;20433;-96
2023/05/16 02:28:58;;;;;;;36.50;21.23;;;;;;;;;;4961242;28;20461;-95
2023/05/16 02:31:27;;;;;;;34.43;24.20;;;;;;;;;;4964047;28;20442;-95
2023/05/16 02:33:53;;;;;;;35.33;22.47;;;;;;;;;;4977928;28;20433;-93
2023/05/16 02:36:20;;;;;;;32.07;22.70;;;;;;;;;;4993701;28;20422;-93
2023/05/16 02:38:46;;;;;;;40.33;25.07;;;;;;;;;;4965067;28;21073;-94
2023/05/16 02:41:12;;;;;;;39.00;23.90;;;;;;;;;;4976299;28;20470;-93
2023/05/16 02:43:38;;;;;;;40.00;24.10;;;;;;;;;;4965048;28;20442;-94
2023/05/16 02:46:04;;;;;;;41.43;23.10;;;;;;;;;;4960678;28;20457;-94
2023/05/16 02:48:30;;;;;;;38.60;25.17;;;;;;;;;;4960003;28;20444;-94
2023/05/16 02:50:57;;;;;;;37.90;24.70;;;;;;;;;;4962576;28;20792;-94
2023/05/16 02:53:23;;;;;;;41.53;26.03;;;;;;;;;;4979926;28;20425;-93
2023/05/16 02:55:49;;;;;;;43.27;26.63;;;;;;;;;;4975968;28;20431;-94
2023/05/16 02:58:15;;;;;;;38.33;22.77;;;;;;;;;;4968460;28;20532;-93
2023/05/16 03:00:41;;;;;;;34.97;22.40;;;;;;;;;;4975714;28;20466;-93
2023/05/16 03:03:07;;;;;;;35.17;23.27;;;;;;;;;;4992581;28;20489;-93
2023/05/16 03:05:33;;;;;;;60.23;26.07;;;;;;;;;;4960557;28;20446;-94
2023/05/16 03:07:59;;;;;;;37.23;21.90;;;;;;;;;;4977822;28;20438;-93
2023/05/16 03:10:25;;;;;;;38.97;24.83;;;;;;;;;;4971733;28;20430;-94
2023/05/16 03:12:51;;;;;;;41.17;27.10;;;;;;;;;;4962205;28;20434;-94
2023/05/16 03:15:17;;;;;;;41.20;25.20;;;;;;;;;;4969681;28;20566;-93
2023/05/16 03:17:43;;;;;;;43.00;25.57;;;;;;;;;;4964618;28;20422;-95
2023/05/16 03:20:10;;;;;;;42.03;23.60;;;;;;;;;;4978897;28;20433;-94
2023/05/16 03:22:36;;;;;;;37.47;25.00;;;;;;;;;;4965572;28;20469;-95
2023/05/16 03:25:03;;;;;;;42.73;25.37;;;;;;;;;;4978221;28;21096;-94
2023/05/16 03:27:28;;;;;;;43.30;25.23;;;;;;;;;;4976062;28;20437;-93
2023/05/16 03:29:55;;;;;;;49.70;26.00;;;;;;;;;;4959558;28;20434;-93
2023/05/16 03:32:20;;;;;;;40.63;25.90;;;;;;;;;;4977382;28;20799;-92
2023/05/16 03:34:46;;;;;;;46.90;27.37;;;;;;;;;;4973416;28;20438;-94
2023/05/16 03:37:14;;;;;;;48.73;30.17;;;;;;;;;;4977130;28;20505;-93
2023/05/16 03:39:40;;;;;;;47.53;28.17;;;;;;;;;;4978421;28;20855;-92
2023/05/16 03:42:06;;;;;;;52.30;28.50;;;;;;;;;;4983970;28;20524;-93
2023/05/16 03:44:32;;;;;;;43.67;29.87;;;;;;;;;;4977979;28;20805;-93
2023/05/16 03:46:58;;;;;;;54.10;29.37;;;;;;;;;;4976605;28;20438;-93
2023/05/16 03:49:28;;;;;;;54.60;29.73;;;;;;;;;;4970023;28;20510;-92
2023/05/16 03:51:56;;;;;;;54.30;28.83;;;;;;;;;;4979990;28;20461;-93
2023/05/16 03:54:22;;;;;;;47.63;29.60;;;;;;;;;;4994749;28;20465;-94
2023/05/16 03:56:48;;;;;;;48.17;28.30;;;;;;;;;;4979615;28;20494;-93
2023/05/16 03:59:15;;;;;;;55.70;29.33;;;;;;;;;;4965061;28;20852;-94
2023/05/16 04:01:41;;;;;;;53.23;29.57;;;;;;;;;;4980118;28;20484;-94
2023/05/16 04:04:07;;;;;;;49.90;28.67;;;;;;;;;;4998034;28;20512;-94
2023/05/16 04:06:33;;;;;;;48.87;28.57;;;;;;;;;;4968871;28;20418;-93
2023/05/16 04:08:59;;;;;;;53.47;28.70;;;;;;;;;;4980702;28;20454;-94
2023/05/16 04:11:26;;;;;;;57.57;29.97;;;;;;;;;;4999242;28;20430;-94
2023/05/16 04:13:52;;;;;;;54.97;29.70;;;;;;;;;;4961391;28;20448;-94
2023/05/16 04:16:18;;;;;;;51.33;28.17;;;;;;;;;;4980693;28;21005;-93
2023/05/16 04:18:44;;;;;;;56.37;29.83;;;;;;;;;;4966760;28;20433;-93
2023/05/16 04:21:13;;;;;;;47.83;28.43;;;;;;;;;;4965654;28;20487;-93
2023/05/16 04:23:40;;;;;;;58.13;30.07;;;;;;;;;;4995859;28;20442;-91
2023/05/16 04:26:06;;;;;;;58.57;31.60;;;;;;;;;;4964286;28;20502;-92
2023/05/16 04:28:32;;;;;;;54.03;31.00;;;;;;;;;;4979203;28;20469;-92
2023/05/16 04:30:58;;;;;;;55.77;30.10;;;;;;;;;;4982581;28;20437;-92
2023/05/16 04:33:24;;;;;;;47.13;26.77;;;;;;;;;;4996651;28;20464;-92
2023/05/16 04:35:51;;;;;;;57.80;29.67;;;;;;;;;;4967370;28;20454;-92
2023/05/16 04:38:17;;;;;;;59.37;32.90;;;;;;;;;;4978158;28;20452;-93
2023/05/16 04:40:44;;;;;;;50.63;29.17;;;;;;;;;;4963467;28;20516;-92
2023/05/16 04:43:10;;;;;;;57.77;30.17;;;;;;;;;;4968444;28;20441;-92
2023/05/16 04:45:36;;;;;;;43.50;28.63;;;;;;;;;;4967453;28;20990;-92
2023/05/16 04:48:02;;;;;;;56.80;31.60;;;;;;;;;;4978994;28;20446;-93
2023/05/16 04:50:29;;;;;;;52.47;29.47;;;;;;;;;;4976563;28;20431;-92
2023/05/16 04:52:55;;;;;;;51.87;30.80;;;;;;;;;;4973605;28;20973;-92
2023/05/16 04:55:21;;;;;;;49.77;28.40;;;;;;;;;;4967372;28;20434;-93
2023/05/16 04:57:47;;;;;;;59.17;31.43;;;;;;;;;;4995474;28;20963;-92
2023/05/16 05:00:13;;;;;;;58.20;29.30;;;;;;;;;;4983985;28;20433;-92
2023/05/16 05:02:39;;;;;;;57.73;32.10;;;;;;;;;;4977593;28;20566;-92
2023/05/16 05:05:05;;;;;;;53.47;30.13;;;;;;;;;;4975651;28;20474;-92
2023/05/16 05:07:32;;;;;;;52.77;31.10;;;;;;;;;;4965794;28;20434;-92
2023/05/16 05:09:58;;;;;;;59.00;30.17;;;;;;;;;;4966337;28;20472;-91
2023/05/16 05:12:26;;;;;;;52.20;30.13;;;;;;;;;;4976088;28;20434;-91
2023/05/16 05:14:52;;;;;;;50.80;28.60;;;;;;;;;;4980059;28;20449;-91
2023/05/16 05:17:17;;;;;;;49.50;29.57;;;;;;;;;;4980096;28;20538;-92
2023/05/16 05:19:43;;;;;;;49.93;28.70;;;;;;;;;;4970714;28;20441;-91
2023/05/16 05:22:09;;;;;;;42.83;25.83;;;;;;;;;;4965269;28;20468;-92
2023/05/16 05:24:35;;;;;;;43.90;26.83;;;;;;;;;;4978827;28;20794;-92
2023/05/16 05:27:01;;;;;;;41.07;25.00;;;;;;;;;;4962870;28;20468;-91
2023/05/16 05:29:28;;;;;;;48.60;27.57;;;;;;;;;;4979397;28;20418;-92
2023/05/16 05:31:54;;;;;;;46.87;27.53;;;;;;;;;;4994485;28;20448;-92
2023/05/16 05:34:20;;;;;;;41.23;28.80;;;;;;;;;;4976905;28;20426;-92
2023/05/16 05:36:46;;;;;;;49.20;28.83;;;;;;;;;;4978797;28;20441;-92
2023/05/16 05:39:12;;;;;;;49.00;27.77;;;;;;;;;;4977087;28;20481;-92
2023/05/16 05:41:38;;;;;;;44.63;26.57;;;;;;;;;;4969247;28;20671;-92
2023/05/16 05:44:04;;;;;;;48.10;29.37;;;;;;;;;;4975699;28;20442;-92
2023/05/16 05:46:30;;;;;;;54.20;29.80;;;;;;;;;;4991428;28;21168;-93
2023/05/16 05:48:59;;;;;;;53.97;29.67;;;;;;;;;;4975597;28;20488;-92
2023/05/16 05:51:26;;;;;;;45.90;28.30;;;;;;;;;;4972730;28;20458;-92
2023/05/16 05:53:52;;;;;;;48.80;29.07;;;;;;;;;;4974254;28;20421;-93
2023/05/16 05:56:20;;;;;;;52.07;28.13;;;;;;;;;;4992664;28;20438;-92
2023/05/16 05:58:46;;;;;;;45.50;27.67;;;;;;;;;;4972729;28;20965;-94
2023/05/16 06:01:12;;;;;;;46.77;27.30;;;;;;;;;;4976222;28;20468;-93
2023/05/16 06:03:38;;;;;;;53.30;28.83;;;;;;;;;;4979773;28;20466;-92
2023/05/16 06:06:04;;;;;;;44.67;27.83;;;;;;;;;;4977816;28;20439;-92
2023/05/16 06:08:30;;;;;;;46.50;26.80;;;;;;;;;;4975087;28;20489;-92
2023/05/16 06:10:56;;;;;;;42.47;27.40;;;;;;;;;;4975450;28;20525;-92
2023/05/16 06:13:22;;;;;;;43.00;28.00;;;;;;;;;;4972880;28;20437;-93
2023/05/16 06:15:51;;;;;;;39.87;25.30;;;;;;;;;;4974763;28;20451;-92
2023/05/16 06:18:18;;;;;;;37.50;23.20;;;;;;;;;;4989634;28;20525;-91
2023/05/16 06:20:44;;;;;;;40.37;25.07;;;;;;;;;;4972776;28;20894;-91
2023/05/16 06:23:10;;;;;;;36.30;24.27;;;;;;;;;;4978956;28;20461;-90
2023/05/16 06:25:36;;;;;;;43.13;25.47;;;;;;;;;;4974580;28;20418;-91
2023/05/16 06:28:02;;;;;;;46.67;24.10;;;;;;;;;;4970988;28;20447;-91
2023/05/16 06:30:28;;;;;;;38.77;24.03;;;;;;;;;;4972574;28;20517;-91
2023/05/16 06:32:54;;;;;;;40.20;24.17;;;;;;;;;;4962027;28;20433;-92
2023/05/16 06:35:20;;;;;;;36.40;23.67;;;;;;;;;;4976420;28;20504;-91
2023/05/16 06:37:46;;;;;;;37.93;23.43;;;;;;;;;;4964953;28;20466;-91
2023/05/16 06:40:14;;;;;;;40.43;25.60;;;;;;;;;;4981700;28;20435;-91
2023/05/16 06:42:40;;;;;;;42.60;25.10;;;;;;;;;;4999273;28;20461;-90
2023/05/16 06:45:06;;;;;;;37.33;23.53;;;;;;;;;;4975196;28;20849;-90
2023/05/16 06:47:32;;;;;;;37.90;24.33;;;;;;;;;;4980624;28;20429;-90
2023/05/16 06:49:58;;;;;;;44.27;23.90;;;;;;;;;;4991371;28;20438;-90
2023/05/16 06:52:25;;;;;;;39.77;24.00;;;;;;;;;;4976316;28;20441;-89
2023/05/16 06:54:51;;;;;;;33.17;22.40;;;;;;;;;;4977414;28;20529;-89
2023/05/16 06:57:17;;;;;;;30.90;21.17;;;;;;;;;;4976677;28;20577;-89
2023/05/16 06:59:43;;;;;;;39.33;24.37;;;;;;;;;;4978560;28;20885;-89
2023/05/16 07:02:09;;;;;;;34.43;24.00;;;;;;;;;;4977018;28;20469;-89
2023/05/16 07:04:36;;;;;;;35.43;22.70;;;;;;;;;;4976156;28;20439;-89
2023/05/16 07:07:03;;;;;;;40.70;23.50;;;;;;;;;;4978005;28;21876;-90
2023/05/16 07:09:29;;;;;;;31.60;21.80;;;;;;;;;;4974687;28;20441;-89
2023/05/16 07:11:55;;;;;;;32.53;19.90;;;;;;;;;;4968529;28;20450;-90
2023/05/16 07:14:21;;;;;;;39.30;21.50;;;;;;;;;;4977487;28;20430;-89
2023/05/16 07:16:46;;;;;;;30.50;18.40;;;;;;;;;;4974845;28;20532;-89
2023/05/16 07:19:12;;;;;;;27.00;18.50;;;;;;;;;;4975384;28;20441;-89
2023/05/16 07:21:38;;;;;;;27.40;18.03;;;;;;;;;;4990192;28;20477;-89
2023/05/16 07:24:05;;;;;;;24.93;17.70;;;;;;;;;;4975643;28;20446;-89
2023/05/16 07:26:34;;;;;;;27.90;16.70;;;;;;;;;;4971373;28;20435;-90
2023/05/16 07:29:01;;;;;;;32.67;20.73;;;;;;;;;;4975133;28;20469;-90
2023/05/16 07:31:27;;;;;;;24.77;16.57;;;;;;;;;;4959196;28;20430;-89
2023/05/16 07:33:53;;;;;;;29.27;18.30;;;;;;;;;;4994897;28;20489;-89
2023/05/16 07:36:20;;;;;;;26.67;18.17;;;;;;;;;;4971739;28;20523;-90
2023/05/16 07:38:46;;;;;;;22.90;16.80;;;;;;;;;;4962215;28;20430;-90
2023/05/16 07:41:12;;;;;;;21.57;13.73;;;;;;;;;;4962341;28;20770;-90
2023/05/16 07:43:38;;;;;;;19.60;14.07;;;;;;;;;;4976239;28;20490;-90
2023/05/16 07:46:04;;;;;;;20.70;14.97;;;;;;;;;;4974388;28;20467;-91
2023/05/16 07:48:33;;;;;;;21.23;15.50;;;;;;;;;;4966535;28;20433;-91
2023/05/16 07:50:59;;;;;;;22.70;15.93;;;;;;;;;;4983260;28;20472;-93
2023/05/16 07:53:25;;;;;;;24.10;17.53;;;;;;;;;;4980478;28;21027;-92
2023/05/16 07:55:51;;;;;;;24.50;16.57;;;;;;;;;;4973897;28;20922;-93
2023/05/16 07:58:17;;;;;;;22.30;14.40;;;;;;;;;;4988351;28;20437;-93
2023/05/16 08:00:43;;;;;;;23.07;17.53;;;;;;;;;;4962239;28;20449;-90
2023/05/16 08:03:09;;;;;;;28.57;17.63;;;;;;;;;;4958575;28;20571;-90
2023/05/16 08:05:35;;;;;;;22.87;15.70;;;;;;;;;;4960318;28;20441;-90
2023/05/16 08:08:01;;;;;;;23.20;14.27;;;;;;;;;;4957955;28;20438;-90
2023/05/16 08:10:27;;;;;;;24.23;16.53;;;;;;;;;;4972798;28;20525;-90
2023/05/16 08:12:53;;;;;;;22.27;15.50;;;;;;;;;;4943536;28;20496;-90
2023/05/16 08:15:20;;;;;;;15.10;11.83;;;;;;;;;;4957391;28;20446;-90
2023/05/16 08:17:46;;;;;;;18.20;14.03;;;;;;;;;;4955792;28;20437;-90
2023/05/16 08:20:12;;;;;;;20.73;13.53;;;;;;;;;;4956519;28;20449;-90
2023/05/16 08:22:38;;;;;;;17.80;13.50;;;;;;;;;;4962277;28;20442;-91
2023/05/16 08:25:04;;;;;;;17.00;12.80;;;;;;;;;;4963304;28;20418;-91
2023/05/16 08:27:30;;;;;;;21.83;14.30;;;;;;;;;;4977470;28;20982;-91
2023/05/16 08:29:56;;;;;;;20.07;13.83;;;;;;;;;;4961698;28;20428;-90
2023/05/16 08:32:23;;;;;;;14.33;12.70;;;;;;;;;;4996380;28;20510;-92
2023/05/16 08:34:48;;;;;;;17.63;14.13;;;;;;;;;;4995470;28;20434;-92
2023/05/16 08:37:15;;;;;;;17.10;12.37;;;;;;;;;;4982244;28;20446;-92
2023/05/16 08:39:41;;;;;;;16.13;13.20;;;;;;;;;;4978870;28;20486;-92
2023/05/16 08:42:07;;;;;;;16.80;11.67;;;;;;;;;;4980407;28;20465;-93
2023/05/16 08:44:33;;;;;;;15.27;12.60;;;;;;;;;;4986030;28;20425;-92
2023/05/16 08:47:01;;;;;;;14.47;11.70;;;;;;;;;;4982340;28;20450;-91
2023/05/16 08:49:27;;;;;;;16.43;12.03;;;;;;;;;;4977756;28;20438;-91
2023/05/16 08:51:54;;;;;;;16.00;12.00;;;;;;;;;;4975058;28;20444;-92
2023/05/16 08:54:21;;;;;;;18.23;14.30;;;;;;;;;;4994610;28;20482;-91
2023/05/16 08:56:49;;;;;;;18.27;13.87;;;;;;;;;;4978229;28;20470;-93
2023/05/16 08:59:15;;;;;;;21.00;14.13;;;;;;;;;;4978027;28;20438;-91
2023/05/16 09:01:42;;;;;;;17.30;13.33;;;;;;;;;;4976023;28;20497;-94
2023/05/16 09:04:09;;;;;;;17.50;12.57;;;;;;;;;;4980087;28;20434;-94
2023/05/16 09:06:35;;;;;;;19.00;12.90;;;;;;;;;;4974182;28;20866;-94
2023/05/16 09:09:02;;;;;;;29.07;14.53;;;;;;;;;;4996727;28;20418;-94
2023/05/16 09:11:30;;;;;;;23.97;14.80;;;;;;;;;;4973185;28;20429;-94
2023/05/16 09:13:56;;;;;;;19.27;12.97;;;;;;;;;;4965533;28;20438;-93
2023/05/16 09:16:22;;;;;;;23.80;16.80;;;;;;;;;;4980748;28;20449;-91
2023/05/16 09:18:55;;;;;;;25.13;17.43;;;;;;;;;;4980023;28;20434;-92
2023/05/16 09:21:31;;;;;;;22.93;14.80;;;;;;;;;;4959239;28;20470;-92
2023/05/16 09:24:04;;;;;;;22.40;16.07;;;;;;;;;;4926472;28;20527;-92
2023/05/16 09:26:31;;;;;;;24.70;17.57;;;;;;;;;;4938069;29;20420;-92
2023/05/16 09:28:57;;;;;;;25.40;15.80;;;;;;;;;;4935389;29;20427;-92
2023/05/16 09:31:26;;;;;;;25.60;15.90;;;;;;;;;;4939443;29;20534;-92
2023/05/16 09:33:56;;;;;;;22.77;16.17;;;;;;;;;;4941839;29;20475;-93
2023/05/16 09:36:22;;;;;;;25.03;14.20;;;;;;;;;;4937218;28;20445;-92
2023/05/16 09:38:50;;;;;;;25.63;17.30;;;;;;;;;;4944850;28;20439;-92
2023/05/16 09:41:16;;;;;;;24.97;16.90;;;;;;;;;;4960915;28;20482;-93
2023/05/16 09:43:42;;;;;;;24.70;15.90;;;;;;;;;;4944312;29;20518;-92
2023/05/16 09:46:08;;;;;;;22.03;15.33;;;;;;;;;;4939079;29;20921;-92
2023/05/16 09:48:37;;;;;;;22.40;15.40;;;;;;;;;;4939252;29;21013;-92
2023/05/16 09:51:05;;;;;;;22.10;15.70;;;;;;;;;;4945565;28;20423;-92
2023/05/16 09:53:33;;;;;;;22.90;14.60;;;;;;;;;;4963733;28;20501;-92
2023/05/16 09:56:00;;;;;;;19.93;13.87;;;;;;;;;;4992583;28;20969;-92
2023/05/16 09:58:33;;;;;;;25.43;15.83;;;;;;;;;;4974730;28;20451;-93
2023/05/16 10:01:00;;;;;;;24.10;14.07;;;;;;;;;;4996759;28;20538;-93
2023/05/16 10:03:26;;;;;;;26.57;15.00;;;;;;;;;;4978172;28;20448;-92
2023/05/16 10:05:52;;;;;;;22.87;15.67;;;;;;;;;;4982546;28;20418;-93
2023/05/16 10:08:22;;;;;;;17.80;12.67;;;;;;;;;;4975173;28;20482;-93
2023/05/16 10:10:53;;;;;;;17.80;11.97;;;;;;;;;;4981245;28;20421;-93
2023/05/16 10:13:20;;;;;;;17.80;11.63;;;;;;;;;;4999559;28;20840;-93
2023/05/16 10:15:48;;;;;;;18.23;12.87;;;;;;;;;;4982694;28;20418;-93
2023/05/16 10:18:14;;;;;;;16.93;11.93;;;;;;;;;;4972109;28;20435;-94
2023/05/16 10:20:44;;;;;;;18.57;10.30;;;;;;;;;;4978385;28;20430;-93
2023/05/16 10:23:11;;;;;;;16.17;12.70;;;;;;;;;;4971888;28;20504;-94
2023/05/16 10:25:39;;;;;;;22.37;12.63;;;;;;;;;;4964887;28;20477;-94
2023/05/16 10:28:05;;;;;;;20.90;12.03;;;;;;;;;;4977465;28;20489;-92
2023/05/16 10:30:32;;;;;;;17.17;12.03;;;;;;;;;;4972672;28;20952;-91
2023/05/16 10:32:58;;;;;;;15.63;11.90;;;;;;;;;;4989552;28;20446;-91
2023/05/16 10:35:26;;;;;;;18.57;12.47;;;;;;;;;;4977520;28;20438;-93
2023/05/16 10:37:52;;;;;;;17.07;12.23;;;;;;;;;;4971834;28;20557;-93
2023/05/16 10:40:18;;;;;;;18.07;12.40;;;;;;;;;;4976547;28;20437;-93
2023/05/16 10:42:54;;;;;;;18.67;13.17;;;;;;;;;;4972710;28;20504;-93
2023/05/16 10:45:20;;;;;;;19.67;12.40;;;;;;;;;;4984816;28;20469;-90
2023/05/16 10:47:53;;;;;;;20.93;13.20;;;;;;;;;;4993398;28;20438;-90
2023/05/16 10:50:35;;;;;;;22.70;14.67;;;;;;;;;;4983497;28;20534;-91
2023/05/16 10:53:18;;;;;;;25.10;14.47;;;;;;;;;;4974262;28;20544;-91
2023/05/16 10:55:51;;;;;;;17.63;11.87;;;;;;;;;;4977242;28;20467;-91
2023/05/16 10:58:24;;;;;;;21.73;10.77;;;;;;;;;;4960330;28;20442;-91
2023/05/16 11:00:50;;;;;;;16.97;11.67;;;;;;;;;;4976864;28;20425;-91
2023/05/16 11:03:26;;;;;;;16.40;10.10;;;;;;;;;;4980146;28;20426;-92
2023/05/16 11:05:53;;;;;;;16.37;11.57;;;;;;;;;;4961517;28;20434;-92
2023/05/16 11:08:19;;;;;;;22.90;13.60;;;;;;;;;;4991685;28;20449;-91
2023/05/16 11:10:45;;;;;;;20.40;11.00;;;;;;;;;;4993012;28;20429;-92
2023/05/16 11:13:11;;;;;;;20.57;12.80;;;;;;;;;;4980304;28;20462;-93
2023/05/16 11:15:37;;;;;;;21.87;12.80;;;;;;;;;;4986312;28;20426;-92
2023/05/16 11:18:23;;;;;;;16.73;11.77;;;;;;;;;;4981109;28;20976;-92
2023/05/16 11:21:02;;;;;;;22.90;11.63;;;;;;;;;;4965975;28;20494;-92
2023/05/16 11:23:28;;;;;;;16.20;11.00;;;;;;;;;;4980518;28;20437;-93
2023/05/16 11:25:59;;;;;;;14.83;10.23;;;;;;;;;;4980731;28;20525;-93
2023/05/16 11:28:25;;;;;;;19.00;11.17;;;;;;;;;;4963203;28;20452;-93
2023/05/16 11:30:54;;;;;;;17.57;11.33;;;;;;;;;;4978208;28;20930;-93
2023/05/16 11:33:20;;;;;;;15.97;10.90;;;;;;;;;;4964103;28;20449;-93
2023/05/16 11:36:01;;;;;;;21.20;12.33;;;;;;;;;;4981905;28;20429;-93
2023/05/16 11:38:29;;;;;;;14.20;9.80;;;;;;;;;;4975689;28;20426;-92
2023/05/16 11:41:01;;;;;;;12.57;8.57;;;;;;;;;;4979829;28;20473;-91
2023/05/16 11:43:27;;;;;;;17.60;9.83;;;;;;;;;;4978197;28;20869;-92
2023/05/16 11:45:56;;;;;;;15.70;9.57;;;;;;;;;;4977896;28;20453;-92
2023/05/16 11:48:25;;;;;;;15.90;8.17;;;;;;;;;;4949866;28;20453;-92
2023/05/16 11:50:53;;;;;;;20.40;9.40;;;;;;;;;;4977770;28;20444;-92
2023/05/16 11:53:21;;;;;;;11.83;8.93;;;;;;;;;;4978605;28;20409;-92
2023/05/16 11:55:50;;;;;;;12.27;8.77;;;;;;;;;;4974457;28;20481;-92
2023/05/16 11:58:16;;;;;;;12.80;8.07;;;;;;;;;;4963948;28;20481;-90
2023/05/16 12:00:50;;;;;;;9.70;7.10;;;;;;;;;;4980921;28;20492;-93
2023/05/16 12:03:17;;;;;;;12.07;8.50;;;;;;;;;;4964675;28;20494;-92
2023/05/16 12:05:51;;;;;;;13.73;8.30;;;;;;;;;;4979133;28;20431;-92
2023/05/16 12:08:17;;;;;;;12.73;8.17;;;;;;;;;;4982835;28;20465;-92
2023/05/16 12:10:43;;;;;;;10.20;7.77;;;;;;;;;;4981647;28;20441;-92
2023/05/16 12:13:09;;;;;;;11.67;7.43;;;;;;;;;;4984939;28;20445;-92
2023/05/16 12:15:35;;;;;;;9.47;6.50;;;;;;;;;;4980587;28;20618;-92
2023/05/16 12:18:02;;;;;;;6.93;5.93;;;;;;;;;;4978123;28;20429;-92
2023/05/16 12:20:27;;;;;;;7.47;5.63;;;;;;;;;;4972872;28;20458;-94
2023/05/16 12:22:53;;;;;;;8.60;6.50;;;;;;;;;;4979396;28;20500;-92
2023/05/16 12:25:34;;;;;;;7.93;5.87;;;;;;;;;;4972360;28;20438;-92
2023/05/16 12:28:00;;;;;;;7.80;5.93;;;;;;;;;;4974882;28;20450;-92
2023/05/16 12:30:27;;;;;;;7.20;6.17;;;;;;;;;;4988497;28;20435;-91
2023/05/16 12:33:00;;;;;;;8.70;6.63;;;;;;;;;;4979582;28;20438;-92
2023/05/16 12:35:29;;;;;;;7.20;5.53;;;;;;;;;;4981278;28;20446;-92
2023/05/16 12:37:55;;;;;;;8.50;5.90;;;;;;;;;;4976547;28;20450;-92
2023/05/16 12:40:22;;;;;;;8.27;5.80;;;;;;;;;;4996746;28;20422;-92
2023/05/16 12:42:53;;;;;;;6.63;5.13;;;;;;;;;;4987538;28;21147;-92
2023/05/16 12:45:19;;;;;;;8.50;4.80;;;;;;;;;;4976544;28;20515;-91
2023/05/16 12:47:46;;;;;;;7.17;4.20;;;;;;;;;;4962592;28;20462;-91
2023/05/16 12:50:16;;;;;;;5.10;4.30;;;;;;;;;;4994571;28;20434;-90
2023/05/16 12:52:52;;;;;;;8.33;4.70;;;;;;;;;;4976506;28;20430;-90
2023/05/16 12:55:19;;;;;;;7.57;5.63;;;;;;;;;;4977143;28;20442;-91
2023/05/16 12:57:46;;;;;;;7.70;5.13;;;;;;;;;;4977057;28;20451;-90
2023/05/16 13:00:12;;;;;;;6.60;5.37;;;;;;;;;;4975226;28;20579;-90
2023/05/16 13:02:38;;;;;;;4.70;4.20;;;;;;;;;;4976843;28;20462;-91
2023/05/16 13:05:06;;;;;;;6.73;5.23;;;;;;;;;;4974928;28;20437;-91
2023/05/16 13:07:32;;;;;;;5.10;4.60;;;;;;;;;;4989920;28;20512;-90
2023/05/16 13:09:58;;;;;;;6.23;5.63;;;;;;;;;;4973516;28;20441;-90
2023/05/16 13:12:26;;;;;;;14.00;4.73;;;;;;;;;;4988569;28;20428;-90
2023/05/16 13:14:55;;;;;;;5.63;4.00;;;;;;;;;;4981070;28;20417;-90
2023/05/16 13:17:22;;;;;;;5.77;4.53;;;;;;;;;;4992416;28;20421;-89
2023/05/16 13:19:48;;;;;;;4.13;3.57;;;;;;;;;;4999117;28;20449;-90
2023/05/16 13:22:14;;;;;;;6.27;3.77;;;;;;;;;;4982499;28;20803;-90
2023/05/16 13:24:40;;;;;;;7.43;4.40;;;;;;;;;;4992456;28;20433;-90
2023/05/16 13:27:07;;;;;;;4.47;3.10;;;;;;;;;;4974741;28;20430;-90
2023/05/16 13:29:33;;;;;;;5.97;3.43;;;;;;;;;;4975175;28;20442;-90
2023/05/16 13:31:59;;;;;;;4.50;3.40;;;;;;;;;;4982145;28;20514;-90
2023/05/16 13:34:25;;;;;;;3.50;2.90;;;;;;;;;;4989394;28;20961;-90
2023/05/16 13:36:51;;;;;;;4.50;2.97;;;;;;;;;;4992684;28;20433;-90
2023/05/16 13:39:17;;;;;;;3.43;3.13;;;;;;;;;;4973300;28;20438;-91
2023/05/16 13:41:43;;;;;;;4.23;2.97;;;;;;;;;;4975150;28;20463;-91
2023/05/16 13:44:10;;;;;;;3.63;2.40;;;;;;;;;;4977943;28;20441;-91
2023/05/16 13:46:36;;;;;;;9.60;3.50;;;;;;;;;;4967719;28;20422;-91
2023/05/16 13:49:02;;;;;;;5.57;3.30;;;;;;;;;;4976917;28;20444;-91
2023/05/16 13:51:28;;;;;;;4.30;3.27;;;;;;;;;;4960735;28;20428;-89
2023/05/16 13:53:54;;;;;;;2.83;2.53;;;;;;;;;;4959031;28;20473;-90
2023/05/16 13:56:20;;;;;;;3.17;2.80;;;;;;;;;;4972216;28;20797;-91
2023/05/16 13:58:46;;;;;;;3.73;2.40;;;;;;;;;;4993681;28;20735;-91
2023/05/16 14:01:13;;;;;;;3.93;3.23;;;;;;;;;;4978493;28;20497;-91
2023/05/16 14:03:39;;;;;;;2.97;2.43;;;;;;;;;;4963539;28;22083;-91
2023/05/16 14:06:05;;;;;;;3.40;2.50;;;;;;;;;;4977009;28;20461;-92
2023/05/16 14:08:31;;;;;;;3.43;2.50;;;;;;;;;;4989835;28;20402;-91
2023/05/16 14:10:57;;;;;;;5.00;2.63;;;;;;;;;;4980417;28;20453;-91
2023/05/16 14:13:23;;;;;;;2.73;2.43;;;;;;;;;;4977797;28;20489;-92
2023/05/16 14:15:50;;;;;;;4.00;2.63;;;;;;;;;;4975188;28;20433;-90
2023/05/16 14:18:16;;;;;;;4.47;2.70;;;;;;;;;;4993212;28;20485;-93
2023/05/16 14:20:42;;;;;;;4.20;2.77;;;;;;;;;;4994285;28;20442;-94